Gaslog data for Sleek Saturn

Go Back   Gas Savers - Fuel Efficiency Forum > Garage > Sleek Saturn
Add Garage Entry Top Ten Entries Search the Garage


Welcome, non logged-in user
Your Garage


Gaslog data for Sleek Saturn
Date Distance Fuel Used Cost of Fuel Notes MPG(US)
11/24/2008 298.9 8.861 1.699Valero by work33.73
10/26/2008 325.7 8.957 2.359Hammered it the whole tank while still p&g'ing36.36
09/24/2008 350.4 8.816 3.539 39.74
09/04/2008 377.6 9.283 3.489Valero Grand Prairie40.67
08/06/2008 407.7 8.928 3.689Valero Irving45.66
07/21/2008 476 9.473 3.93Valero in Irving.50.24
07/02/2008 414.6 9.421 3.939First couple of weeks of work, along with trip to Cleburne. Filed up at Valero.44.00
06/14/2008 460.5 9.81 3.979Filled up at a Chevron, will see if this equates to any mileage difference. This was an odd tank, parents drove it for 50 or so miles, only 3 and a half trips to work.46.94
05/29/2008 460.9 9.266 3.79odo=95065.449.74
05/19/2008 419.9 9.39 3.66First 115 miles was someone else at the helm on a "road trip"44.71
05/09/2008 445.9 9.6 3.559Did not take it easy on this tank.46.44
04/27/2008 167.8 4.377 3.499Camping trip, 4 people and a car-top carrier going 70 or under and one trip to work and back at 75MPH (48 Miles).38.33
04/25/2008 379.6 7.798 3.499 48.67
04/13/2008 130.1 2.897 3.27955MPH highway driving with minimal traffic (weekend). This is compared to 70MPH what I have been doing. I was doing less pulse and glide down the hills on the highway for this "tank".44.90
04/11/2008 523.3 10.336 3.279Did some more aggressive codfishing and eoc'ing.50.62
03/27/2008 480.1 9.775 3.199 49.11
03/16/2008 422.1 9.491 3.159 44.47
03/03/2008 322 6.327 2.999 50.89
02/21/2008 309.1 6.337 2.959First tank with Scanguage.48.77
02/14/2008 147.6 3.547 2.79Short fillup to start calibration of ScangaugeII.41.61
02/09/2008 397.5 10.38 0Road trip by my Mom.38.29
02/08/2008 385.2 8.833 2.749Typical of recent driving.43.60
01/28/2008 394 8.71 2.779Shell, plenty of traffic during this tank.45.23
01/15/2008 421.5 9.06 2.869Shell, changed to day shift so there was traffic on the last 100 miles of this tank.46.52
12/30/2007 48.5 1.058 2.83955MPH, everything the same as I have been driving except cruising on the highway at a lower speed.45.84
12/29/2007 417.3 9.254 2.849Shell 70MPH, lots of cold weather driving.45.09
12/19/2007 406.1 9.339 2.759Shell, 70MPH43.48
12/06/2007 374.9 8.878 2.789This was the tank with Valero gas, all at 70MPH highway.42.22
11/27/2007 336 8.176 2.839Valero gasoline. Lots of time idling to keep battery power for my computer, starter seems to be going out so I didn't do any EOC'ing and I idled at stop-lights, still drove 70 on the highway.41.09
11/18/2007 370.4 8.467 2.869I think my odometer stopped working for 30 miles or more this tank. But I had such an odd week of driving I can't recreate what all I did and make sure. This record is what the trip shows. odo=87676 This tank at 70MPH43.74
11/10/2007 407.9 8.595 2.91960MPH, did have a nasty traffic jam that lasted an hour and 1 mile. Engine was off most of the time of course. Still shifting at 1500 however did experiment with shifting at 2k and doing 1st 3rd 5th.47.45
11/01/2007 421 8.416 2.79960MPH cruising speed.50.02
10/24/2007 96.5 2.049 2.59965-70 miles an hour but still short shifting at 1500 rpm.47.09
10/23/2007 439 8.533 2.619Same pump at same station at Shell.51.44
10/11/2007 197.7 3.971 2.529Drove a little harder, all highway except for a 20 mile trip of city roads. Cruising at 55-60 EOC'ing when it will get me more than 20 seconds or so. Haven't fixed the cold engine (160 Fahrenheit), or high idle (maybe related).49.78
10/08/2007 344.5 6.767 2.549Shifted at 1500 most of the time, played around a bit as it is a new car. First full tank, Idling high and the thermostat is stuck open it seems (160 engine temps). 8574250.90


All times are GMT -6. The time now is 10:19 AM.


Copyright 2005-2008 GasSavers.Org